createdAt,value
2023-03-13T00:02:16.100Z,6.72
2023-03-13T00:04:52.012Z,5.68
2023-03-13T00:07:24.208Z,8.05
2023-03-13T00:09:56.247Z,7.60
2023-03-13T00:12:28.226Z,7.55
2023-03-13T00:15:00.176Z,6.82
2023-03-13T00:17:33.490Z,5.15
2023-03-13T00:20:10.095Z,7.00
2023-03-13T00:22:42.075Z,5.32
2023-03-13T00:25:14.190Z,6.30
2023-03-13T00:27:46.197Z,4.82
2023-03-13T00:30:18.471Z,5.90
2023-03-13T00:32:50.610Z,5.75
2023-03-13T00:35:25.364Z,8.85
2023-03-13T00:37:57.531Z,9.05
2023-03-13T00:40:29.641Z,8.80
2023-03-13T00:43:01.593Z,6.13
2023-03-13T00:45:33.533Z,9.93
2023-03-13T00:48:05.996Z,6.20
2023-03-13T00:50:40.575Z,7.55
2023-03-13T00:53:12.581Z,7.32
2023-03-13T00:55:54.688Z,8.20
2023-03-13T00:58:28.757Z,4.78
2023-03-13T01:01:07.953Z,10.25
2023-03-13T01:03:40.990Z,8.32
2023-03-13T01:06:17.694Z,4.93
2023-03-13T01:08:50.109Z,5.78
2023-03-13T01:11:25.010Z,3.40
2023-03-13T01:13:58.917Z,3.97
2023-03-13T01:16:32.964Z,9.85
2023-03-13T01:19:07.406Z,3.55
2023-03-13T01:21:43.187Z,9.63
2023-03-13T01:24:15.266Z,8.43
2023-03-13T01:26:47.239Z,7.53
2023-03-13T01:29:19.216Z,4.75
2023-03-13T01:31:51.190Z,6.95
2023-03-13T01:34:23.238Z,5.65
2023-03-13T01:36:57.832Z,3.70
2023-03-13T01:39:29.804Z,6.78
2023-03-13T01:42:03.921Z,6.57
2023-03-13T01:44:50.817Z,7.70
2023-03-13T01:47:22.923Z,4.68
2023-03-13T01:49:54.942Z,3.72
2023-03-13T01:52:32.031Z,5.70
2023-03-13T01:55:08.741Z,6.22
2023-03-13T01:57:44.980Z,4.57
2023-03-13T02:00:22.621Z,6.20
2023-03-13T02:02:58.138Z,5.88
2023-03-13T02:05:31.885Z,7.18
2023-03-13T02:08:10.962Z,8.00
2023-03-13T02:10:49.042Z,6.00
2023-03-13T02:13:21.403Z,8.20
2023-03-13T02:15:53.456Z,4.68
2023-03-13T02:18:26.639Z,3.22
2023-03-13T02:21:05.791Z,6.50
2023-03-13T02:23:48.659Z,6.18
2023-03-13T02:26:23.217Z,5.55
2023-03-13T02:28:55.208Z,4.38
2023-03-13T02:31:27.438Z,7.25
2023-03-13T02:34:02.484Z,4.72
2023-03-13T02:36:34.514Z,4.93
2023-03-13T02:39:07.075Z,4.10
2023-03-13T02:41:43.824Z,7.65
2023-03-13T02:44:15.826Z,6.32
2023-03-13T02:46:50.465Z,3.80
2023-03-13T02:49:27.979Z,5.80
2023-03-13T02:52:09.218Z,3.08
2023-03-13T02:54:44.106Z,6.75
2023-03-13T02:57:18.769Z,6.95
2023-03-13T02:59:50.847Z,8.25
2023-03-13T03:02:22.900Z,4.63
2023-03-13T03:04:55.101Z,6.20
2023-03-13T03:07:27.066Z,2.50
2023-03-13T03:09:59.009Z,4.38
2023-03-13T03:12:33.624Z,3.45
2023-03-13T03:15:06.813Z,4.22
2023-03-13T03:17:39.583Z,3.13
2023-03-13T03:20:12.312Z,6.65
2023-03-13T03:22:44.394Z,3.60
2023-03-13T03:25:16.602Z,4.85
2023-03-13T03:27:51.234Z,4.78
2023-03-13T03:30:23.204Z,8.30
2023-03-13T03:32:55.302Z,6.93
2023-03-13T03:35:27.375Z,4.50
2023-03-13T03:37:59.380Z,4.72
2023-03-13T03:40:31.368Z,3.75
2023-03-13T03:43:05.937Z,6.53
2023-03-13T03:45:37.947Z,4.30
2023-03-13T03:48:10.004Z,6.63
2023-03-13T03:50:42.128Z,5.40
2023-03-13T03:53:14.155Z,6.20
2023-03-13T03:55:46.186Z,4.00
2023-03-13T03:58:20.801Z,3.15
2023-03-13T04:00:52.916Z,6.80
2023-03-13T04:03:25.394Z,4.22
2023-03-13T04:05:57.910Z,7.65
2023-03-13T04:08:29.964Z,7.38
2023-03-13T04:11:02.745Z,3.72
2023-03-13T04:13:37.348Z,7.60
2023-03-13T04:16:10.617Z,6.13
2023-03-13T04:18:42.604Z,3.00
2023-03-13T04:21:14.576Z,4.25
2023-03-13T04:23:46.580Z,1.92
2023-03-13T04:26:18.783Z,4.65
2023-03-13T04:28:53.356Z,3.13
2023-03-13T04:31:25.395Z,3.08
2023-03-13T04:33:57.375Z,3.08
2023-03-13T04:36:29.320Z,5.60
2023-03-13T04:39:01.286Z,3.95
2023-03-13T04:41:33.365Z,4.30
2023-03-13T04:44:08.049Z,3.60
2023-03-13T04:46:39.998Z,4.30
2023-03-13T04:49:12.102Z,2.78
2023-03-13T04:51:44.647Z,2.60
2023-03-13T04:54:17.205Z,2.90
2023-03-13T04:56:49.399Z,3.45
2023-03-13T04:59:23.979Z,3.92
2023-03-13T05:01:55.936Z,4.75
2023-03-13T05:04:27.883Z,3.28
2023-03-13T05:06:59.861Z,8.52
2023-03-13T05:09:31.942Z,3.35
2023-03-13T05:12:04.375Z,5.75
2023-03-13T05:14:38.955Z,4.60
2023-03-13T05:17:12.588Z,3.47
2023-03-13T05:19:44.576Z,4.60
2023-03-13T05:22:16.595Z,2.97
2023-03-13T05:24:48.567Z,2.78
2023-03-13T05:27:20.598Z,2.63
2023-03-13T05:29:55.130Z,1.75
2023-03-13T05:32:27.507Z,2.13
2023-03-13T05:34:59.561Z,1.48
2023-03-13T05:37:31.575Z,4.65
2023-03-13T05:40:04.382Z,4.03
2023-03-13T05:42:36.375Z,1.48
2023-03-13T05:45:11.853Z,2.50
2023-03-13T05:47:43.830Z,1.60
2023-03-13T05:50:16.248Z,1.40
2023-03-13T05:52:48.245Z,2.53
2023-03-13T05:55:20.730Z,3.03
2023-03-13T05:57:52.698Z,2.72
2023-03-13T06:00:27.725Z,3.00
2023-03-13T06:02:59.728Z,2.40
2023-03-13T06:05:31.743Z,2.67
2023-03-13T06:08:03.789Z,3.95
2023-03-13T06:10:35.792Z,3.35
2023-03-13T06:13:19.438Z,3.92
2023-03-13T06:15:56.248Z,3.88
2023-03-13T06:18:28.333Z,0.77
2023-03-13T06:21:07.207Z,2.15
2023-03-13T06:23:39.215Z,2.20
2023-03-13T06:26:11.727Z,1.67
2023-03-13T06:28:43.823Z,1.70
2023-03-13T06:36:25.713Z,1.25
2023-03-13T07:06:55.884Z,0.40
2023-03-13T07:14:31.826Z,0.63
2023-03-13T07:17:06.475Z,0.28
2023-03-13T07:24:42.330Z,0.65
2023-03-13T07:27:14.436Z,0.30
2023-03-13T07:29:46.468Z,0.82
2023-03-13T07:32:21.111Z,2.63
2023-03-13T07:34:53.116Z,0.50
2023-03-13T07:37:25.121Z,0.35
2023-03-13T08:33:22.346Z,0.52
2023-03-13T08:35:54.370Z,0.30
2023-03-13T08:38:26.431Z,1.00
2023-03-13T08:40:58.417Z,0.55
2023-03-13T09:19:13.099Z,0.63
2023-03-13T09:42:18.036Z,0.30
2023-03-13T10:39:19.485Z,0.80
2023-03-13T10:41:57.918Z,1.55
2023-03-13T10:44:33.498Z,1.20
2023-03-13T10:47:06.836Z,0.90
2023-03-13T10:49:48.015Z,1.52
2023-03-13T10:52:34.893Z,2.13
2023-03-13T10:55:10.627Z,1.50
2023-03-13T10:57:51.801Z,1.38
2023-03-13T11:00:29.844Z,4.78
2023-03-13T11:03:02.748Z,4.00
2023-03-13T11:05:40.159Z,1.75
2023-03-13T11:08:21.862Z,1.08
2023-03-13T11:10:57.173Z,3.30
2023-03-13T11:13:37.082Z,1.42
2023-03-13T11:16:19.330Z,1.40
2023-03-13T11:19:21.929Z,2.40
2023-03-13T11:22:11.250Z,1.02
2023-03-13T11:24:54.270Z,1.40
2023-03-13T11:27:35.835Z,3.22
2023-03-13T11:30:22.601Z,0.90
2023-03-13T11:32:56.362Z,1.25
2023-03-13T11:35:44.118Z,1.55
2023-03-13T11:38:23.678Z,2.65
2023-03-13T11:41:06.424Z,1.35
2023-03-13T11:44:11.575Z,2.58
2023-03-13T11:46:53.075Z,2.50
2023-03-13T11:49:44.544Z,1.30
2023-03-13T11:52:33.273Z,1.80
2023-03-13T11:55:25.912Z,1.45
2023-03-13T11:58:33.054Z,2.10
2023-03-13T12:01:09.313Z,1.40
2023-03-13T12:03:48.377Z,1.27
2023-03-13T12:06:29.497Z,2.67
2023-03-13T12:09:12.086Z,1.10
2023-03-13T12:11:52.635Z,0.90
2023-03-13T12:14:33.641Z,1.63
2023-03-13T12:17:10.022Z,1.88
2023-03-13T12:32:58.252Z,1.98
2023-03-13T12:35:34.975Z,3.55
2023-03-13T12:43:23.524Z,1.63
2023-03-13T12:46:12.211Z,2.72
2023-03-13T12:49:00.417Z,2.35
2023-03-13T12:51:48.815Z,2.60
2023-03-13T12:54:43.501Z,2.55
2023-03-13T12:57:44.991Z,1.35
2023-03-13T13:00:21.031Z,1.48
2023-03-13T13:03:06.330Z,1.88
2023-03-13T13:05:57.604Z,1.75
2023-03-13T13:08:34.277Z,3.63
2023-03-13T13:11:36.705Z,1.67
2023-03-13T13:14:53.656Z,0.95
2023-03-13T13:17:35.580Z,1.95
2023-03-13T13:20:33.778Z,1.08
2023-03-13T13:23:22.618Z,1.75
2023-03-13T13:25:56.595Z,2.35
2023-03-13T13:28:35.516Z,1.13
2023-03-13T13:31:45.939Z,5.53
2023-03-13T13:37:26.211Z,1.25
2023-03-13T13:40:23.681Z,0.85
2023-03-13T13:42:56.993Z,1.80
2023-03-13T13:45:34.026Z,1.35
2023-03-13T13:48:26.641Z,2.33
2023-03-13T13:51:23.805Z,2.85
2023-03-13T13:53:59.725Z,3.50
2023-03-13T13:56:41.209Z,2.33
2023-03-13T13:59:40.865Z,1.30
2023-03-13T14:02:32.132Z,0.80
2023-03-13T14:07:47.349Z,1.42
2023-03-13T14:10:35.875Z,2.00
2023-03-13T14:13:15.795Z,0.70
2023-03-13T14:15:49.349Z,1.25
2023-03-13T14:18:23.687Z,6.15
2023-03-13T14:20:58.043Z,2.67
2023-03-13T14:23:33.327Z,0.93
2023-03-13T14:26:13.931Z,1.55
2023-03-13T14:28:50.284Z,1.23
2023-03-13T14:31:28.749Z,4.15
2023-03-13T14:34:03.009Z,2.05
2023-03-13T14:36:46.633Z,2.20
2023-03-13T14:39:21.359Z,2.58
2023-03-13T14:41:53.929Z,1.20
2023-03-13T14:44:32.453Z,1.90
2023-03-13T14:47:07.459Z,4.32
2023-03-13T14:49:39.503Z,2.75
2023-03-13T14:52:20.278Z,1.95
2023-03-13T14:54:54.408Z,1.60
2023-03-13T14:57:27.784Z,2.53
2023-03-13T15:00:30.035Z,3.05
2023-03-13T15:03:28.009Z,2.55
2023-03-13T15:06:09.533Z,2.80
2023-03-13T15:08:42.912Z,8.32
2023-03-13T15:11:20.855Z,6.05
2023-03-13T15:13:53.680Z,2.72
2023-03-13T15:16:26.900Z,4.00
2023-03-13T15:19:01.641Z,1.85
2023-03-13T15:21:35.041Z,2.75
2023-03-13T15:24:13.824Z,1.58
2023-03-13T15:26:48.610Z,2.90
2023-03-13T15:29:21.330Z,1.33
2023-03-13T15:31:53.366Z,1.10
2023-03-13T15:34:29.268Z,1.60
2023-03-13T15:37:01.298Z,1.42
2023-03-13T15:39:33.255Z,1.88
2023-03-13T15:42:06.421Z,1.42
2023-03-13T15:44:38.502Z,1.25
2023-03-13T15:47:11.123Z,1.30
2023-03-13T15:49:45.963Z,4.40
2023-03-13T15:52:22.873Z,1.15
2023-03-13T16:22:58.741Z,2.58
2023-03-13T16:25:32.083Z,2.50
2023-03-13T16:28:04.762Z,2.38
2023-03-13T16:30:36.890Z,1.00
2023-03-13T16:33:09.407Z,0.90
2023-03-13T16:35:44.044Z,2.33
2023-03-13T16:38:15.999Z,1.42
2023-03-13T16:40:48.006Z,1.63
2023-03-13T16:43:20.005Z,0.80
2023-03-13T16:45:51.990Z,1.33
2023-03-13T16:48:23.966Z,1.10
2023-03-13T16:50:58.492Z,0.82
2023-03-13T16:53:30.502Z,3.03
2023-03-13T16:56:02.484Z,1.02
2023-03-13T16:58:34.457Z,2.22
2023-03-13T17:01:08.755Z,2.15
2023-03-13T17:03:40.856Z,2.45
2023-03-13T17:06:19.106Z,1.35
2023-03-13T17:08:51.635Z,1.48
2023-03-13T17:11:24.211Z,1.80
2023-03-13T17:13:56.882Z,1.80
2023-03-13T17:16:34.684Z,0.95
2023-03-13T17:19:06.856Z,1.77
2023-03-13T17:24:13.194Z,0.75
2023-03-13T17:26:45.198Z,1.58
2023-03-13T17:29:21.370Z,1.92
2023-03-13T17:31:53.357Z,5.72
2023-03-13T17:34:27.631Z,2.25
2023-03-13T17:37:04.862Z,2.75
2023-03-13T17:42:09.626Z,2.13
2023-03-13T17:44:41.710Z,1.20
2023-03-13T17:47:16.490Z,1.90
2023-03-13T17:49:48.463Z,3.33
2023-03-13T17:52:23.065Z,1.98
2023-03-13T17:54:55.153Z,1.13
2023-03-13T18:02:30.902Z,2.05
2023-03-13T18:05:03.038Z,2.35
2023-03-13T18:07:43.803Z,1.20
2023-03-13T18:10:22.040Z,1.83
2023-03-13T18:12:54.793Z,1.00
2023-03-13T18:15:27.086Z,0.43
2023-03-13T18:17:59.108Z,1.60
2023-03-13T18:20:32.054Z,1.05
2023-03-13T18:23:06.635Z,0.40
2023-03-13T18:28:11.643Z,1.42
2023-03-13T18:30:43.605Z,2.90
2023-03-13T18:33:15.651Z,1.33
2023-03-13T18:35:47.674Z,1.23
2023-03-13T18:38:23.913Z,1.20
2023-03-13T18:43:27.772Z,1.95
2023-03-13T18:45:59.849Z,2.75
2023-03-13T18:48:32.016Z,2.63
2023-03-13T18:51:04.826Z,2.83
2023-03-13T18:53:39.486Z,2.00
2023-03-13T18:56:18.224Z,1.27
2023-03-13T18:58:52.586Z,1.25
2023-03-13T19:01:27.307Z,0.95
2023-03-13T19:04:00.224Z,1.17
2023-03-13T19:06:35.112Z,1.30
2023-03-13T19:09:41.055Z,3.40
2023-03-13T19:12:08.332Z,1.35
2023-03-13T19:14:40.395Z,2.00
2023-03-13T19:17:20.240Z,1.75
2023-03-13T19:19:57.118Z,6.53
2023-03-13T19:22:29.216Z,1.98
2023-03-13T19:25:07.257Z,2.42
2023-03-13T19:27:42.426Z,1.70
2023-03-13T19:30:16.914Z,3.15
2023-03-13T19:32:52.262Z,1.58
2023-03-13T19:35:24.338Z,1.83
2023-03-13T19:37:56.336Z,4.05
2023-03-13T19:40:31.127Z,3.13
2023-03-13T19:43:03.164Z,2.13
2023-03-13T19:59:35.120Z,3.20
2023-03-13T20:27:01.169Z,2.08
2023-03-13T20:29:34.564Z,1.13
2023-03-13T20:36:39.252Z,2.08
2023-03-13T20:39:11.275Z,1.00
2023-03-13T20:41:52.252Z,0.57
2023-03-13T21:09:07.049Z,1.90
2023-03-13T21:11:41.512Z,1.20
2023-03-13T21:14:19.741Z,1.00
2023-03-13T21:24:22.194Z,0.88
2023-03-13T21:26:59.789Z,0.57
2023-03-13T21:53:13.079Z,1.23
2023-03-13T21:55:45.223Z,1.38
2023-03-13T21:58:17.824Z,0.75
2023-03-13T22:00:53.115Z,3.40
2023-03-13T22:03:29.128Z,0.75
2023-03-13T22:06:01.167Z,0.68
2023-03-13T22:08:35.956Z,0.65
2023-03-13T22:11:08.297Z,2.38
2023-03-13T22:13:40.414Z,0.75
2023-03-13T22:16:12.400Z,0.77
2023-03-13T22:18:45.641Z,2.08
2023-03-13T22:21:18.576Z,0.63
2023-03-13T22:23:53.245Z,0.55
2023-03-13T22:26:25.232Z,1.00
2023-03-13T22:28:57.224Z,1.90
2023-03-13T22:31:29.311Z,1.10
2023-03-13T22:34:01.312Z,1.13
2023-03-13T22:36:33.502Z,1.38
2023-03-13T22:39:08.149Z,0.25
2023-03-13T22:41:40.226Z,1.52
2023-03-13T22:44:12.242Z,3.05
2023-03-13T22:46:44.265Z,0.90
2023-03-13T22:49:16.271Z,1.10
2023-03-13T22:51:48.419Z,0.73
2023-03-13T22:54:22.970Z,2.15
2023-03-13T22:56:55.104Z,1.27
2023-03-13T22:59:27.178Z,0.50
2023-03-13T23:01:59.212Z,0.22
2023-03-13T23:04:31.214Z,0.70
2023-03-13T23:07:03.312Z,1.23
2023-03-13T23:09:37.979Z,1.15
2023-03-13T23:12:10.449Z,0.45
2023-03-13T23:14:42.416Z,0.22
2023-03-13T23:17:14.518Z,0.60
2023-03-13T23:19:46.634Z,0.30
2023-03-13T23:22:21.746Z,0.63
2023-03-13T23:24:56.359Z,0.40
2023-03-13T23:27:28.432Z,0.30
2023-03-13T23:30:01.922Z,1.50
2023-03-13T23:32:36.753Z,0.30
2023-03-13T23:35:10.927Z,0.00
2023-03-13T23:37:43.008Z,0.63
2023-03-13T23:40:17.783Z,0.20
2023-03-13T23:42:51.022Z,2.58
2023-03-13T23:45:23.034Z,0.70
2023-03-13T23:47:55.186Z,0.10
2023-03-13T23:50:27.183Z,1.25
2023-03-13T23:52:59.253Z,0.40
2023-03-13T23:55:33.789Z,0.80
2023-03-13T23:58:05.770Z,1.85
